Time;durP1;ratioP1;P1;durP2;ratioP2;P2;SDS_P1;SDS_P2;PMS_P1;PMS_P2;Temp;Humidity;BMP_temperature;BMP_pressure;BME280_temperature;BME280_humidity;BME280_pressure;Samples;Min_cycle;Max_cycle;Signal;HPM_P1;HPM_P2
2022/05/31 00:02:10;;;;;;;2.83;1.27;;;;;;;;;;5051397;28;20029;-74
2022/05/31 00:04:36;;;;;;;2.08;1.50;;;;;;;;;;5051346;28;20442;-74
2022/05/31 00:07:04;;;;;;;2.97;1.50;;;;;;;;;;5051460;28;20060;-74
2022/05/31 00:09:30;;;;;;;2.85;1.30;;;;;;;;;;5051504;28;20017;-74
2022/05/31 00:11:57;;;;;;;3.05;1.63;;;;;;;;;;5051401;28;20021;-74
2022/05/31 00:14:23;;;;;;;2.17;1.42;;;;;;;;;;5051336;28;20021;-74
2022/05/31 00:16:50;;;;;;;3.22;1.45;;;;;;;;;;5051282;28;20067;-74
2022/05/31 00:19:17;;;;;;;3.35;1.50;;;;;;;;;;5033261;28;20033;-74
2022/05/31 00:21:43;;;;;;;4.07;1.45;;;;;;;;;;5051304;28;20040;-74
2022/05/31 00:24:10;;;;;;;2.00;1.38;;;;;;;;;;5051278;28;20112;-74
2022/05/31 00:26:39;;;;;;;2.58;1.52;;;;;;;;;;5051126;28;20032;-74
2022/05/31 00:29:06;;;;;;;3.85;1.60;;;;;;;;;;5051220;28;20432;-74
2022/05/31 00:31:32;;;;;;;3.70;1.70;;;;;;;;;;5035617;28;20520;-74
2022/05/31 00:33:59;;;;;;;6.20;1.50;;;;;;;;;;5046211;28;20028;-74
2022/05/31 00:36:25;;;;;;;3.67;1.73;;;;;;;;;;5051068;28;20429;-74
2022/05/31 00:38:51;;;;;;;2.85;1.55;;;;;;;;;;5051177;28;20028;-74
2022/05/31 00:41:24;;;;;;;6.35;2.00;;;;;;;;;;5033095;28;20313;-74
2022/05/31 00:43:52;;;;;;;3.35;1.75;;;;;;;;;;5051063;28;20375;-74
2022/05/31 00:46:19;;;;;;;2.95;1.58;;;;;;;;;;5050942;28;20383;-74
2022/05/31 00:48:49;;;;;;;3.60;1.90;;;;;;;;;;5051021;28;20095;-74
2022/05/31 00:51:17;;;;;;;6.10;1.90;;;;;;;;;;5051191;28;20060;-74
2022/05/31 00:53:58;;;;;;;6.43;2.03;;;;;;;;;;5050990;28;20025;-74
2022/05/31 00:56:26;;;;;;;4.55;1.90;;;;;;;;;;5051070;28;20057;-74
2022/05/31 00:58:59;;;;;;;3.00;1.70;;;;;;;;;;5050946;28;20108;-74
2022/05/31 01:01:26;;;;;;;5.03;1.90;;;;;;;;;;5053879;28;20051;-74
2022/05/31 01:03:52;;;;;;;3.97;1.85;;;;;;;;;;5054816;28;20132;-74
2022/05/31 01:06:19;;;;;;;4.88;1.70;;;;;;;;;;5054648;28;20025;-74
2022/05/31 01:08:46;;;;;;;5.97;1.88;;;;;;;;;;5054662;28;20027;-74
2022/05/31 01:11:17;;;;;;;2.95;1.45;;;;;;;;;;5054667;28;20020;-74
2022/05/31 01:13:43;;;;;;;7.20;2.20;;;;;;;;;;5054701;28;20539;-74
2022/05/31 01:16:12;;;;;;;3.92;1.95;;;;;;;;;;5054542;28;20112;-74
2022/05/31 01:18:39;;;;;;;5.80;2.00;;;;;;;;;;5036482;28;20443;-74
2022/05/31 01:21:05;;;;;;;2.90;1.60;;;;;;;;;;5054515;28;20028;-74
2022/05/31 01:23:35;;;;;;;3.70;1.98;;;;;;;;;;5054466;28;20032;-74
2022/05/31 01:26:01;;;;;;;4.55;2.00;;;;;;;;;;5054320;28;20032;-74
2022/05/31 01:28:42;;;;;;;6.45;1.88;;;;;;;;;;5054163;28;20029;-74
2022/05/31 01:31:11;;;;;;;5.03;1.80;;;;;;;;;;5041980;28;20448;-74
2022/05/31 01:33:55;;;;;;;4.70;2.17;;;;;;;;;;5046037;28;20021;-74
2022/05/31 01:36:24;;;;;;;4.90;1.90;;;;;;;;;;5054220;28;20116;-74
2022/05/31 01:39:08;;;;;;;2.22;1.73;;;;;;;;;;5054104;28;20025;-74
2022/05/31 01:41:37;;;;;;;3.50;1.73;;;;;;;;;;5054158;28;20025;-74
2022/05/31 01:44:05;;;;;;;2.97;1.92;;;;;;;;;;5054077;28;20032;-74
2022/05/31 01:46:33;;;;;;;4.80;2.05;;;;;;;;;;5053949;28;20033;-74
2022/05/31 01:49:00;;;;;;;3.83;2.05;;;;;;;;;;5053980;28;20032;-74
2022/05/31 01:51:27;;;;;;;4.47;1.98;;;;;;;;;;5053902;28;20463;-74
2022/05/31 01:53:54;;;;;;;4.82;1.88;;;;;;;;;;5053793;28;20025;-74
2022/05/31 01:56:21;;;;;;;2.45;1.60;;;;;;;;;;5053753;28;20025;-74
2022/05/31 01:58:48;;;;;;;2.80;1.77;;;;;;;;;;5053778;28;20033;-74
2022/05/31 02:01:15;;;;;;;4.88;2.08;;;;;;;;;;5053690;28;20055;-74
2022/05/31 02:03:42;;;;;;;3.70;2.00;;;;;;;;;;5053764;28;20025;-74
2022/05/31 02:06:27;;;;;;;3.33;1.70;;;;;;;;;;5053562;28;20116;-74
2022/05/31 02:08:53;;;;;;;4.70;2.30;;;;;;;;;;5053508;28;20044;-74
2022/05/31 02:11:19;;;;;;;3.40;1.95;;;;;;;;;;5052906;28;20022;-74
2022/05/31 02:13:45;;;;;;;4.18;1.85;;;;;;;;;;5053448;28;20028;-74
2022/05/31 02:16:12;;;;;;;5.68;1.70;;;;;;;;;;5053464;28;20025;-74
2022/05/31 02:21:23;;;;;;;5.65;2.10;;;;;;;;;;5053516;28;20098;-74
2022/05/31 02:23:49;;;;;;;3.38;1.83;;;;;;;;;;5053333;28;20120;-74
2022/05/31 02:26:15;;;;;;;7.82;2.47;;;;;;;;;;5053028;28;20032;-74
2022/05/31 02:28:41;;;;;;;4.53;1.90;;;;;;;;;;5053246;28;20021;-74
2022/05/31 02:31:07;;;;;;;3.80;2.05;;;;;;;;;;5052826;28;20056;-74
2022/05/31 02:33:34;;;;;;;5.43;2.20;;;;;;;;;;5052948;28;20024;-74
2022/05/31 02:36:00;;;;;;;4.95;2.05;;;;;;;;;;5053150;28;20049;-74
2022/05/31 02:38:26;;;;;;;5.57;2.00;;;;;;;;;;5053063;28;20094;-74
2022/05/31 02:40:52;;;;;;;3.35;2.10;;;;;;;;;;5052967;28;20412;-74
2022/05/31 02:43:18;;;;;;;6.63;2.85;;;;;;;;;;5052919;28;20029;-74
2022/05/31 02:45:44;;;;;;;6.80;2.33;;;;;;;;;;5052713;28;20479;-73
2022/05/31 02:48:10;;;;;;;9.32;2.35;;;;;;;;;;5052767;28;20136;-73
2022/05/31 02:50:40;;;;;;;6.72;2.22;;;;;;;;;;5052554;28;20032;-73
2022/05/31 02:53:06;;;;;;;4.22;2.10;;;;;;;;;;5052540;28;20027;-74
2022/05/31 02:55:32;;;;;;;5.07;2.10;;;;;;;;;;5052592;28;20021;-74
2022/05/31 02:57:58;;;;;;;5.38;2.47;;;;;;;;;;5052579;28;20391;-74
2022/05/31 03:00:24;;;;;;;4.55;2.28;;;;;;;;;;5052525;28;20448;-74
2022/05/31 03:02:50;;;;;;;3.28;1.80;;;;;;;;;;5052480;28;20040;-74
2022/05/31 03:05:16;;;;;;;4.97;2.22;;;;;;;;;;5052450;28;20036;-74
2022/05/31 03:07:42;;;;;;;5.47;2.50;;;;;;;;;;5052385;28;20033;-74
2022/05/31 03:10:08;;;;;;;4.10;2.38;;;;;;;;;;5052392;28;20032;-74
2022/05/31 03:12:34;;;;;;;5.57;2.22;;;;;;;;;;5052375;28;20033;-74
2022/05/31 03:15:08;;;;;;;5.30;2.53;;;;;;;;;;5052325;28;20071;-74
2022/05/31 03:17:36;;;;;;;6.03;2.38;;;;;;;;;;5052146;28;20073;-74
2022/05/31 03:20:04;;;;;;;4.25;2.35;;;;;;;;;;5052163;28;20032;-74
2022/05/31 03:22:32;;;;;;;7.57;2.65;;;;;;;;;;5051480;28;20033;-74
2022/05/31 03:25:04;;;;;;;2.95;2.22;;;;;;;;;;5051962;28;20033;-74
2022/05/31 03:27:30;;;;;;;5.95;2.47;;;;;;;;;;5051868;28;20082;-74
2022/05/31 03:29:57;;;;;;;8.02;2.67;;;;;;;;;;5051838;28;20029;-74
2022/05/31 03:32:23;;;;;;;4.53;2.47;;;;;;;;;;5051750;28;20053;-74
2022/05/31 03:34:49;;;;;;;4.57;2.22;;;;;;;;;;5052197;28;20032;-74
2022/05/31 03:37:15;;;;;;;7.50;2.50;;;;;;;;;;5051563;28;20053;-74
2022/05/31 03:39:41;;;;;;;6.55;2.67;;;;;;;;;;5051739;28;20060;-74
2022/05/31 03:42:08;;;;;;;6.32;2.70;;;;;;;;;;5051686;28;20032;-74
2022/05/31 03:44:34;;;;;;;4.57;2.42;;;;;;;;;;5051721;28;20036;-74
2022/05/31 03:47:01;;;;;;;7.00;2.70;;;;;;;;;;5033616;28;20029;-74
2022/05/31 03:49:27;;;;;;;6.07;2.67;;;;;;;;;;5051718;28;20038;-74
2022/05/31 03:51:53;;;;;;;5.22;2.50;;;;;;;;;;5051578;28;20021;-74
2022/05/31 03:54:19;;;;;;;6.13;2.95;;;;;;;;;;5051481;28;20064;-74
2022/05/31 03:56:45;;;;;;;4.82;3.00;;;;;;;;;;5051485;28;20029;-74
2022/05/31 03:59:11;;;;;;;6.07;3.30;;;;;;;;;;5051336;28;20033;-74
2022/05/31 04:01:37;;;;;;;6.78;3.05;;;;;;;;;;5051176;28;20029;-74
2022/05/31 04:04:03;;;;;;;8.38;3.25;;;;;;;;;;5051431;28;20043;-74
2022/05/31 04:06:30;;;;;;;7.82;3.28;;;;;;;;;;5051096;28;20025;-74
2022/05/31 04:08:56;;;;;;;5.90;3.33;;;;;;;;;;5051324;28;20032;-74
2022/05/31 04:11:24;;;;;;;5.35;3.00;;;;;;;;;;5051371;28;20372;-74
2022/05/31 04:13:50;;;;;;;4.15;2.78;;;;;;;;;;5051154;28;20363;-74
2022/05/31 04:16:17;;;;;;;6.00;3.03;;;;;;;;;;5051162;28;20103;-74
2022/05/31 04:18:43;;;;;;;8.38;3.50;;;;;;;;;;5051072;28;20090;-74
2022/05/31 04:21:10;;;;;;;5.72;3.20;;;;;;;;;;5051210;28;20028;-74
2022/05/31 04:26:21;;;;;;;5.80;3.10;;;;;;;;;;5050973;28;20115;-74
2022/05/31 04:28:47;;;;;;;5.05;3.03;;;;;;;;;;5051038;28;20079;-74
2022/05/31 04:31:13;;;;;;;7.07;3.38;;;;;;;;;;5037912;28;20030;-74
2022/05/31 04:33:40;;;;;;;9.88;4.43;;;;;;;;;;5043008;28;20079;-74
2022/05/31 04:36:08;;;;;;;5.50;3.35;;;;;;;;;;5054988;28;20048;-74
2022/05/31 04:38:34;;;;;;;6.18;3.17;;;;;;;;;;5055015;28;20044;-74
2022/05/31 04:41:01;;;;;;;6.65;3.80;;;;;;;;;;5055153;28;20021;-74
2022/05/31 04:43:27;;;;;;;8.43;3.83;;;;;;;;;;5054963;28;20336;-74
2022/05/31 04:45:53;;;;;;;5.05;3.80;;;;;;;;;;5054795;28;20510;-74
2022/05/31 04:48:19;;;;;;;5.78;3.38;;;;;;;;;;5054934;28;20078;-74
2022/05/31 04:50:45;;;;;;;9.88;3.92;;;;;;;;;;5054773;28;20066;-74
2022/05/31 04:53:11;;;;;;;8.98;3.63;;;;;;;;;;5036760;28;20508;-74
2022/05/31 04:55:38;;;;;;;6.43;3.95;;;;;;;;;;5054716;28;20028;-74
2022/05/31 04:58:04;;;;;;;12.68;4.10;;;;;;;;;;5054054;28;20063;-73
2022/05/31 05:00:30;;;;;;;8.38;3.90;;;;;;;;;;5054248;28;20043;-74
2022/05/31 05:02:56;;;;;;;5.28;3.60;;;;;;;;;;5054153;28;20025;-74
2022/05/31 05:05:22;;;;;;;9.00;4.00;;;;;;;;;;5054071;28;20025;-74
2022/05/31 05:07:48;;;;;;;7.85;3.88;;;;;;;;;;5054168;28;20383;-74
2022/05/31 05:10:14;;;;;;;7.85;4.35;;;;;;;;;;5053913;28;20523;-74
2022/05/31 05:12:40;;;;;;;7.32;3.70;;;;;;;;;;5054014;28;20041;-74
2022/05/31 05:15:06;;;;;;;9.38;4.03;;;;;;;;;;5054003;28;20463;-74
2022/05/31 05:17:33;;;;;;;10.63;4.25;;;;;;;;;;5053777;28;20175;-74
2022/05/31 05:19:59;;;;;;;5.88;3.92;;;;;;;;;;5054075;28;20032;-74
2022/05/31 05:22:27;;;;;;;7.00;4.22;;;;;;;;;;5053761;28;20043;-74
2022/05/31 05:24:53;;;;;;;15.57;4.60;;;;;;;;;;5053852;28;20025;-74
2022/05/31 05:27:19;;;;;;;9.27;4.65;;;;;;;;;;5053620;28;20024;-74
2022/05/31 05:32:30;;;;;;;17.50;4.78;;;;;;;;;;5052779;28;20537;-74
2022/05/31 05:34:56;;;;;;;14.18;4.75;;;;;;;;;;5053925;28;20090;-74
2022/05/31 05:37:22;;;;;;;24.20;5.93;;;;;;;;;;5053532;28;20041;-74
2022/05/31 05:39:48;;;;;;;18.75;5.28;;;;;;;;;;5053577;28;20035;-74
2022/05/31 05:42:15;;;;;;;22.70;5.07;;;;;;;;;;5035299;28;20033;-74
2022/05/31 05:44:41;;;;;;;14.32;4.90;;;;;;;;;;5035307;28;20383;-74
2022/05/31 05:47:09;;;;;;;10.65;4.43;;;;;;;;;;5052311;28;20043;-74
2022/05/31 05:49:35;;;;;;;12.57;4.68;;;;;;;;;;5053184;28;20040;-74
2022/05/31 05:52:02;;;;;;;8.00;4.15;;;;;;;;;;5035355;28;20391;-74
2022/05/31 05:54:28;;;;;;;9.50;4.43;;;;;;;;;;5053331;28;20101;-74
2022/05/31 05:56:54;;;;;;;9.70;5.22;;;;;;;;;;5051550;28;20044;-74
2022/05/31 05:59:20;;;;;;;10.13;4.80;;;;;;;;;;5050841;28;20135;-74
2022/05/31 06:01:58;;;;;;;15.82;5.47;;;;;;;;;;5053403;28;20025;-74
2022/05/31 06:04:34;;;;;;;12.88;4.53;;;;;;;;;;5053267;28;20037;-74
2022/05/31 06:07:15;;;;;;;9.82;4.30;;;;;;;;;;5053452;28;20041;-74
2022/05/31 06:09:43;;;;;;;11.88;4.57;;;;;;;;;;5053167;28;20025;-74
2022/05/31 06:12:12;;;;;;;15.05;5.93;;;;;;;;;;5053346;28;20039;-74
2022/05/31 06:14:41;;;;;;;8.25;4.82;;;;;;;;;;5053282;28;20032;-74
2022/05/31 06:17:11;;;;;;;8.90;4.65;;;;;;;;;;5035095;28;20120;-74
2022/05/31 06:19:38;;;;;;;6.65;4.10;;;;;;;;;;5053286;28;20023;-74
2022/05/31 06:22:05;;;;;;;9.88;4.55;;;;;;;;;;5053140;28;20033;-74
2022/05/31 06:24:32;;;;;;;8.80;4.70;;;;;;;;;;5035264;28;20029;-74
2022/05/31 06:26:58;;;;;;;10.00;3.90;;;;;;;;;;5053331;28;20021;-74
2022/05/31 06:29:24;;;;;;;7.55;4.38;;;;;;;;;;5052603;28;20037;-74
2022/05/31 06:31:50;;;;;;;9.13;4.70;;;;;;;;;;5050092;28;20013;-74
2022/05/31 06:34:17;;;;;;;9.60;4.53;;;;;;;;;;5052418;28;20029;-74
2022/05/31 06:36:43;;;;;;;10.40;4.18;;;;;;;;;;5034388;28;20151;-74
2022/05/31 06:39:09;;;;;;;9.82;4.13;;;;;;;;;;5052333;28;20032;-74
2022/05/31 06:41:36;;;;;;;8.95;4.38;;;;;;;;;;5034278;28;20024;-74
2022/05/31 06:44:02;;;;;;;10.10;4.40;;;;;;;;;;5049783;28;20083;-73
2022/05/31 06:46:28;;;;;;;7.90;4.05;;;;;;;;;;5052095;28;20029;-74
2022/05/31 06:48:54;;;;;;;11.48;4.10;;;;;;;;;;5052081;28;20028;-74
2022/05/31 06:56:59;;;;;;;6.70;3.78;;;;;;;;;;5050630;28;20083;-74
2022/05/31 06:59:25;;;;;;;11.82;3.58;;;;;;;;;;5049660;28;20041;-74
2022/05/31 07:01:53;;;;;;;10.00;3.90;;;;;;;;;;5051976;28;20440;-74
2022/05/31 07:04:19;;;;;;;9.02;3.47;;;;;;;;;;5051726;28;20025;-74
2022/05/31 07:06:45;;;;;;;9.23;4.22;;;;;;;;;;5051779;28;20111;-74
2022/05/31 07:09:12;;;;;;;10.30;4.20;;;;;;;;;;5051772;28;20097;-74
2022/05/31 07:11:39;;;;;;;10.45;4.28;;;;;;;;;;5033670;28;20841;-74
2022/05/31 07:14:05;;;;;;;9.88;3.92;;;;;;;;;;5033783;28;20064;-74
2022/05/31 07:16:31;;;;;;;7.22;3.85;;;;;;;;;;5051619;28;20348;-74
2022/05/31 07:18:57;;;;;;;8.23;3.63;;;;;;;;;;5051124;28;20424;-74
2022/05/31 07:21:24;;;;;;;7.70;3.65;;;;;;;;;;5029519;28;20422;-74
2022/05/31 07:23:53;;;;;;;11.57;3.92;;;;;;;;;;5049015;28;20523;-73
2022/05/31 07:26:20;;;;;;;8.43;3.60;;;;;;;;;;5050369;28;20032;-74
2022/05/31 07:28:46;;;;;;;7.55;3.58;;;;;;;;;;5051460;28;20057;-74
2022/05/31 07:31:12;;;;;;;9.98;3.80;;;;;;;;;;5051444;28;20132;-74
2022/05/31 07:33:38;;;;;;;7.13;3.45;;;;;;;;;;5051551;28;20139;-74
2022/05/31 07:36:05;;;;;;;8.40;3.80;;;;;;;;;;5033786;28;20102;-79
2022/05/31 07:38:32;;;;;;;7.07;3.28;;;;;;;;;;5051756;28;20039;-79
2022/05/31 07:40:59;;;;;;;6.38;3.15;;;;;;;;;;5051814;28;20108;-78
2022/05/31 07:43:25;;;;;;;8.77;2.70;;;;;;;;;;5051834;28;20382;-78
2022/05/31 07:45:59;;;;;;;7.95;3.15;;;;;;;;;;5051779;28;20021;-79
2022/05/31 07:48:25;;;;;;;7.80;2.90;;;;;;;;;;5051700;28;20021;-79
2022/05/31 07:50:51;;;;;;;6.03;3.70;;;;;;;;;;5051862;28;20103;-78
2022/05/31 07:53:17;;;;;;;8.35;2.78;;;;;;;;;;5051799;28;20032;-79
2022/05/31 07:55:43;;;;;;;6.15;2.65;;;;;;;;;;5052066;28;20021;-79
2022/05/31 08:00:55;;;;;;;4.95;2.65;;;;;;;;;;5051559;28;20262;-78
2022/05/31 08:03:21;;;;;;;6.18;2.50;;;;;;;;;;5051693;28;20029;-78
2022/05/31 08:05:47;;;;;;;8.82;2.58;;;;;;;;;;5037676;28;20036;-79
2022/05/31 08:08:13;;;;;;;7.35;3.13;;;;;;;;;;5031997;28;20391;-77
2022/05/31 08:10:39;;;;;;;4.22;2.47;;;;;;;;;;5031440;28;20025;-78
2022/05/31 08:13:05;;;;;;;6.97;2.85;;;;;;;;;;5013597;28;20052;-79
2022/05/31 08:15:31;;;;;;;4.50;2.10;;;;;;;;;;5031441;28;20356;-78
2022/05/31 08:17:57;;;;;;;6.45;2.83;;;;;;;;;;5041472;28;20340;-79
2022/05/31 08:20:23;;;;;;;7.70;2.90;;;;;;;;;;5050475;28;20094;-79
2022/05/31 08:22:49;;;;;;;5.72;2.65;;;;;;;;;;5050859;28;20092;-79
2022/05/31 08:25:16;;;;;;;5.05;2.60;;;;;;;;;;5040069;28;20383;-80
2022/05/31 08:27:42;;;;;;;14.07;3.28;;;;;;;;;;5051105;28;20199;-78
2022/05/31 08:30:08;;;;;;;5.00;2.25;;;;;;;;;;5033268;28;20021;-79
2022/05/31 08:32:36;;;;;;;7.20;2.60;;;;;;;;;;5051451;28;20066;-78
2022/05/31 08:35:02;;;;;;;9.15;2.67;;;;;;;;;;5049428;28;20025;-78
2022/05/31 08:37:30;;;;;;;6.28;2.33;;;;;;;;;;5032825;28;20140;-78
2022/05/31 08:39:56;;;;;;;5.45;2.42;;;;;;;;;;5050897;28;20032;-77
2022/05/31 08:42:23;;;;;;;4.80;2.65;;;;;;;;;;5050911;28;20036;-76
2022/05/31 08:44:49;;;;;;;9.77;2.80;;;;;;;;;;5050779;28;20107;-77
2022/05/31 08:47:36;;;;;;;7.40;2.85;;;;;;;;;;5050474;28;20127;-76
2022/05/31 08:52:58;;;;;;;7.32;2.25;;;;;;;;;;5049644;28;20042;-77
2022/05/31 08:58:16;;;;;;;6.10;2.35;;;;;;;;;;5050757;28;20035;-77
2022/05/31 09:00:43;;;;;;;5.53;2.25;;;;;;;;;;5050501;28;20086;-77
2022/05/31 09:03:15;;;;;;;7.15;2.35;;;;;;;;;;5050777;28;20040;-77
2022/05/31 09:05:50;;;;;;;3.70;2.17;;;;;;;;;;5037378;28;20056;-77
2022/05/31 09:08:21;;;;;;;6.13;2.17;;;;;;;;;;5032230;28;20026;-77
2022/05/31 09:10:55;;;;;;;5.18;2.10;;;;;;;;;;5031253;28;20029;-77
2022/05/31 09:13:29;;;;;;;4.30;2.30;;;;;;;;;;5049809;28;20017;-77
2022/05/31 09:16:02;;;;;;;5.65;2.20;;;;;;;;;;5047790;28;20533;-77
2022/05/31 09:18:28;;;;;;;;;;;;;;;;;;5050302;28;20021;-77
2022/05/31 09:20:59;;;;;;;6.20;2.40;;;;;;;;;;5050408;28;19916;-77
2022/05/31 09:23:28;;;;;;;5.13;2.03;;;;;;;;;;5051617;28;20021;-77
2022/05/31 09:26:09;;;;;;;5.43;1.90;;;;;;;;;;5053573;28;20021;-77
2022/05/31 09:28:36;;;;;;;5.90;2.63;;;;;;;;;;5032907;28;20095;-77
2022/05/31 09:31:07;;;;;;;5.20;2.33;;;;;;;;;;5052088;28;20025;-77
2022/05/31 09:33:36;;;;;;;5.65;2.00;;;;;;;;;;5035446;28;20045;-77
2022/05/31 09:36:09;;;;;;;7.72;2.38;;;;;;;;;;5053257;28;20049;-77
2022/05/31 09:38:53;;;;;;;10.02;3.00;;;;;;;;;;5050880;28;20037;-77
2022/05/31 09:41:24;;;;;;;9.02;2.65;;;;;;;;;;5051380;28;20032;-77
2022/05/31 09:43:57;;;;;;;3.05;1.75;;;;;;;;;;5053695;28;20021;-78
2022/05/31 09:46:23;;;;;;;4.88;2.33;;;;;;;;;;5053699;28;20471;-78
2022/05/31 09:48:50;;;;;;;6.13;2.05;;;;;;;;;;5035589;28;20036;-78
2022/05/31 09:51:31;;;;;;;5.85;2.20;;;;;;;;;;5053869;28;20021;-78
2022/05/31 09:59:29;;;;;;;7.05;2.30;;;;;;;;;;5053901;28;20040;-78
2022/05/31 10:01:56;;;;;;;5.28;2.67;;;;;;;;;;5053566;28;20021;-79
2022/05/31 10:04:24;;;;;;;4.95;2.10;;;;;;;;;;5051224;28;20025;-78
2022/05/31 10:06:52;;;;;;;4.72;2.08;;;;;;;;;;5033834;28;20041;-78
2022/05/31 10:09:19;;;;;;;5.53;2.33;;;;;;;;;;5033521;28;20021;-78
2022/05/31 10:11:46;;;;;;;3.53;2.28;;;;;;;;;;5033489;28;20120;-78
2022/05/31 10:14:31;;;;;;;5.85;2.53;;;;;;;;;;5033482;28;20048;-78
2022/05/31 10:17:12;;;;;;;4.80;2.58;;;;;;;;;;5033337;28;20038;-78
2022/05/31 10:19:38;;;;;;;7.78;2.90;;;;;;;;;;5033247;28;20494;-78
2022/05/31 10:22:20;;;;;;;6.82;2.35;;;;;;;;;;5033381;28;20499;-78
2022/05/31 10:24:46;;;;;;;4.80;2.10;;;;;;;;;;5033224;28;20402;-79
2022/05/31 10:27:12;;;;;;;5.95;2.60;;;;;;;;;;5033080;28;20116;-74
2022/05/31 10:30:01;;;;;;;5.30;2.58;;;;;;;;;;5033136;28;20093;-75
2022/05/31 10:32:30;;;;;;;10.15;2.88;;;;;;;;;;4971521;28;20129;-75
2022/05/31 10:35:07;;;;;;;4.03;2.15;;;;;;;;;;4971818;28;20521;-76
2022/05/31 10:37:33;;;;;;;4.40;2.13;;;;;;;;;;4971286;28;20062;-76
2022/05/31 10:40:08;;;;;;;5.07;2.97;;;;;;;;;;4971389;28;20043;-78
2022/05/31 10:42:35;;;;;;;5.53;2.72;;;;;;;;;;4971073;28;20071;-79
2022/05/31 10:45:04;;;;;;;8.60;2.22;;;;;;;;;;4954897;28;20114;-78
2022/05/31 10:47:30;;;;;;;6.38;2.55;;;;;;;;;;4954661;28;20142;-78
2022/05/31 10:49:56;;;;;;;7.93;3.08;;;;;;;;;;4970640;28;20110;-78
2022/05/31 10:52:34;;;;;;;4.97;2.30;;;;;;;;;;4970885;28;20034;-79
2022/05/31 10:55:12;;;;;;;4.45;1.80;;;;;;;;;;4970936;28;20069;-79
2022/05/31 10:57:40;;;;;;;7.60;2.22;;;;;;;;;;4970905;28;20031;-79
2022/05/31 11:00:08;;;;;;;6.72;2.75;;;;;;;;;;4970912;28;20074;-79
2022/05/31 11:02:36;;;;;;;3.90;1.95;;;;;;;;;;4954371;28;20030;-79
2022/05/31 11:05:08;;;;;;;4.88;2.10;;;;;;;;;;4970987;28;20035;-79
2022/05/31 11:07:41;;;;;;;7.05;2.40;;;;;;;;;;4971081;28;20062;-78
2022/05/31 11:13:17;;;;;;;3.85;2.22;;;;;;;;;;5051184;28;20091;-77
2022/05/31 11:16:03;;;;;;;9.43;2.20;;;;;;;;;;5052203;28;20029;-78
2022/05/31 11:18:42;;;;;;;9.13;1.83;;;;;;;;;;5052243;28;20108;-79
2022/05/31 11:21:27;;;;;;;5.57;2.20;;;;;;;;;;5052158;28;20048;-77
2022/05/31 11:24:03;;;;;;;3.20;1.73;;;;;;;;;;5051843;28;20025;-75
2022/05/31 11:26:34;;;;;;;5.20;1.80;;;;;;;;;;5052074;28;20033;-80
2022/05/31 11:29:19;;;;;;;4.22;1.92;;;;;;;;;;5051830;28;20476;-80
2022/05/31 11:31:51;;;;;;;2.28;1.63;;;;;;;;;;5032584;28;20034;-80
2022/05/31 11:34:23;;;;;;;3.75;1.90;;;;;;;;;;5031829;28;20033;-79
2022/05/31 11:36:49;;;;;;;;;;;;;;;;;;5032040;28;20132;-80
2022/05/31 11:39:38;;;;;;;3.75;1.60;;;;;;;;;;5031697;28;19971;-80
2022/05/31 11:42:04;;;;;;;4.05;1.60;;;;;;;;;;4971009;28;20121;-80
2022/05/31 11:44:48;;;;;;;3.35;1.90;;;;;;;;;;4970158;28;20038;-80
2022/05/31 11:47:17;;;;;;;3.38;1.50;;;;;;;;;;4954768;28;20221;-80
2022/05/31 11:49:43;;;;;;;7.75;1.52;;;;;;;;;;4970855;28;20038;-80
2022/05/31 11:52:29;;;;;;;4.60;1.33;;;;;;;;;;4970864;28;20027;-80
2022/05/31 11:55:26;;;;;;;2.15;1.50;;;;;;;;;;4971014;28;20398;-80
2022/05/31 11:58:12;;;;;;;3.83;1.38;;;;;;;;;;4970686;28;20478;-79
2022/05/31 12:00:41;;;;;;;4.05;2.10;;;;;;;;;;4954538;28;20401;-79
2022/05/31 12:03:14;;;;;;;2.20;1.58;;;;;;;;;;4970741;28;20047;-80
2022/05/31 12:05:44;;;;;;;3.08;1.40;;;;;;;;;;4970695;28;20043;-79
2022/05/31 12:08:20;;;;;;;4.90;1.67;;;;;;;;;;4970759;28;20034;-79
2022/05/31 12:10:49;;;;;;;4.22;1.80;;;;;;;;;;4970619;28;20062;-79
2022/05/31 12:13:16;;;;;;;3.05;1.63;;;;;;;;;;4970767;28;20519;-80
2022/05/31 12:15:44;;;;;;;10.07;1.40;;;;;;;;;;4970582;28;20027;-80
2022/05/31 12:18:10;;;;;;;6.07;1.90;;;;;;;;;;4980783;28;20482;-79
2022/05/31 12:20:50;;;;;;;4.07;1.63;;;;;;;;;;5051199;28;20032;-80
2022/05/31 12:23:18;;;;;;;3.22;1.48;;;;;;;;;;5051299;28;20066;-79
2022/05/31 12:25:48;;;;;;;11.05;1.65;;;;;;;;;;5051226;28;20029;-79
2022/05/31 12:28:20;;;;;;;6.38;1.58;;;;;;;;;;5051647;28;20032;-79
2022/05/31 12:31:19;;;;;;;3.70;1.45;;;;;;;;;;5042212;28;20017;-79
2022/05/31 12:33:49;;;;;;;5.75;1.95;;;;;;;;;;5031395;28;20100;-80
2022/05/31 12:36:19;;;;;;;2.72;1.60;;;;;;;;;;5031314;28;20045;-80
2022/05/31 12:39:02;;;;;;;3.40;1.75;;;;;;;;;;5031475;28;20051;-80
2022/05/31 12:41:47;;;;;;;3.97;2.00;;;;;;;;;;5031555;28;20021;-79
2022/05/31 12:44:14;;;;;;;5.07;2.53;;;;;;;;;;5031541;28;20087;-79
2022/05/31 12:46:48;;;;;;;4.32;1.80;;;;;;;;;;5031420;28;20045;-79
2022/05/31 12:49:22;;;;;;;6.22;2.10;;;;;;;;;;5031338;28;20022;-79
2022/05/31 12:52:07;;;;;;;3.72;1.90;;;;;;;;;;5031320;28;20022;-79
2022/05/31 12:54:53;;;;;;;3.50;1.80;;;;;;;;;;5031378;28;20018;-79
2022/05/31 12:58:26;;;;;;;3.05;1.60;;;;;;;;;;5035208;28;20025;-80
2022/05/31 13:00:42;;;;;;;5.20;1.75;;;;;;;;;;5035059;28;20480;-80
2022/05/31 13:03:27;;;;;;;3.05;1.60;;;;;;;;;;5035152;28;20132;-80
2022/05/31 13:06:07;;;;;;;6.03;1.90;;;;;;;;;;5049741;28;20029;-79
2022/05/31 13:08:52;;;;;;;2.40;1.50;;;;;;;;;;5054856;28;20033;-79
2022/05/31 13:19:38;;;;;;;3.35;1.55;;;;;;;;;;5054752;28;20095;-78
2022/05/31 13:22:12;;;;;;;2.47;1.58;;;;;;;;;;5054605;28;20029;-79
2022/05/31 13:24:43;;;;;;;3.50;1.40;;;;;;;;;;5053961;28;20055;-79
2022/05/31 13:27:10;;;;;;;3.83;1.40;;;;;;;;;;5054162;28;20013;-79
2022/05/31 13:29:36;;;;;;;4.00;1.35;;;;;;;;;;5054428;28;20021;-81
2022/05/31 13:32:03;;;;;;;2.28;1.40;;;;;;;;;;5053799;28;20036;-80
2022/05/31 13:34:34;;;;;;;3.63;1.70;;;;;;;;;;5054428;28;20118;-81
2022/05/31 13:37:12;;;;;;;3.58;1.77;;;;;;;;;;5054386;28;20143;-80
2022/05/31 13:39:43;;;;;;;3.17;1.67;;;;;;;;;;5050088;28;20034;-79
2022/05/31 13:42:16;;;;;;;5.63;1.67;;;;;;;;;;5032706;28;20040;-79
2022/05/31 13:44:44;;;;;;;3.92;1.77;;;;;;;;;;5053360;28;20116;-81
2022/05/31 13:47:12;;;;;;;4.50;1.73;;;;;;;;;;5033647;28;20430;-80
2022/05/31 13:49:45;;;;;;;6.10;2.47;;;;;;;;;;5036327;28;20037;-81
2022/05/31 13:52:17;;;;;;;4.88;2.30;;;;;;;;;;5054025;28;20078;-81
2022/05/31 13:54:43;;;;;;;4.38;2.22;;;;;;;;;;5054501;28;20017;-81
2022/05/31 13:57:11;;;;;;;4.82;2.13;;;;;;;;;;5054488;28;20028;-80
2022/05/31 13:59:39;;;;;;;9.05;2.55;;;;;;;;;;5054473;28;20032;-81
2022/05/31 14:02:11;;;;;;;4.15;2.17;;;;;;;;;;5054447;28;20028;-81
2022/05/31 14:04:38;;;;;;;6.63;2.38;;;;;;;;;;5051494;28;20021;-81
2022/05/31 14:07:08;;;;;;;5.32;2.58;;;;;;;;;;5053263;28;20057;-80
2022/05/31 14:09:37;;;;;;;6.75;2.47;;;;;;;;;;5054033;28;20348;-81
2022/05/31 14:12:05;;;;;;;5.15;2.30;;;;;;;;;;5053937;28;20100;-80
2022/05/31 14:14:37;;;;;;;7.45;3.22;;;;;;;;;;5048546;28;20017;-81
2022/05/31 14:17:04;;;;;;;4.10;2.28;;;;;;;;;;5054197;28;20324;-81
2022/05/31 14:19:31;;;;;;;10.73;2.50;;;;;;;;;;5036238;28;20033;-80
2022/05/31 14:21:59;;;;;;;5.82;2.40;;;;;;;;;;5054237;28;20135;-79
2022/05/31 14:24:27;;;;;;;4.70;2.13;;;;;;;;;;5054357;28;20029;-82
2022/05/31 14:26:54;;;;;;;3.83;2.10;;;;;;;;;;5054189;28;20032;-80
2022/05/31 14:29:26;;;;;;;4.65;2.30;;;;;;;;;;5046034;28;20021;-81
2022/05/31 14:32:12;;;;;;;6.10;2.85;;;;;;;;;;5052951;28;20029;-80
2022/05/31 14:34:41;;;;;;;3.60;2.60;;;;;;;;;;5054969;28;20025;-81
2022/05/31 14:37:09;;;;;;;6.32;2.47;;;;;;;;;;5057919;28;20124;-81
2022/05/31 14:39:43;;;;;;;5.75;2.63;;;;;;;;;;5053904;28;20379;-81
2022/05/31 14:42:16;;;;;;;4.18;2.35;;;;;;;;;;5062910;28;20487;-82
2022/05/31 14:44:50;;;;;;;5.72;2.90;;;;;;;;;;5059786;28;20021;-81
2022/05/31 14:47:23;;;;;;;4.80;2.90;;;;;;;;;;5050214;28;20033;-80
2022/05/31 14:49:51;;;;;;;4.65;2.85;;;;;;;;;;5043677;28;20018;-82
2022/05/31 14:52:23;;;;;;;7.97;3.00;;;;;;;;;;5047311;28;20036;-82
2022/05/31 14:54:51;;;;;;;11.05;3.50;;;;;;;;;;5058199;28;20017;-82
2022/05/31 14:57:20;;;;;;;6.43;3.72;;;;;;;;;;5052211;28;20493;-82
2022/05/31 14:59:47;;;;;;;6.57;3.90;;;;;;;;;;5047102;28;20033;-80
2022/05/31 15:02:19;;;;;;;7.70;3.28;;;;;;;;;;5056707;28;20032;-81
2022/05/31 15:04:45;;;;;;;9.52;3.58;;;;;;;;;;5054155;28;20032;-82
2022/05/31 15:07:17;;;;;;;6.32;3.80;;;;;;;;;;5053387;28;20431;-82
2022/05/31 15:09:43;;;;;;;5.90;3.72;;;;;;;;;;5053603;28;20040;-81
2022/05/31 15:20:24;;;;;;;8.55;3.83;;;;;;;;;;5044883;28;20098;-79
2022/05/31 15:22:50;;;;;;;6.43;3.85;;;;;;;;;;5050715;28;20108;-79
2022/05/31 15:25:23;;;;;;;5.68;4.15;;;;;;;;;;5052537;28;20029;-82
2022/05/31 15:27:49;;;;;;;6.07;4.13;;;;;;;;;;5042296;28;20108;-82
2022/05/31 15:30:16;;;;;;;5.75;3.85;;;;;;;;;;5049467;28;20033;-81
2022/05/31 15:32:46;;;;;;;7.72;4.30;;;;;;;;;;5052558;28;20027;-83
2022/05/31 15:35:13;;;;;;;8.82;4.72;;;;;;;;;;5042631;28;20030;-83
2022/05/31 15:37:39;;;;;;;9.80;4.63;;;;;;;;;;5046127;28;20483;-81
2022/05/31 15:40:06;;;;;;;8.55;4.68;;;;;;;;;;5047817;28;20040;-82
2022/05/31 15:42:32;;;;;;;9.05;4.93;;;;;;;;;;5029455;28;20031;-82
2022/05/31 15:44:59;;;;;;;7.15;4.85;;;;;;;;;;5045219;28;20029;-83